ADDS METAR Data INFO
IDs: Format: Raw Decoded Include TAF

Data at: 1412 UTC 12 Dec 2017

KCTJ 121355Z AUTO 31010KT 10SM CLR 06/00 A2996 RMK AO2 T00610000
KCTJ 121335Z AUTO 31005KT 10SM CLR 06/00 A2995 RMK AO2 T00550000
KCTJ 121315Z AUTO 32003KT 10SM CLR 05/00 A2994 RMK AO2 T00460000
KCTJ 121255Z AUTO 31004KT 10SM CLR 04/00 A2993 RMK AO2 T00400002
KCTJ 121235Z AUTO 31003KT 10SM CLR 04/00 A2992 RMK AO2 T00390004
KCTJ 121215Z AUTO 31003KT 10SM CLR 05/01 A2992 RMK AO2 T00450005
KCTJ 121155Z AUTO 31004KT 10SM CLR 04/01 A2992 RMK AO2 T00390008 10053 20001
KCTJ 121135Z AUTO 30004KT 10SM CLR 02/01 A2991 RMK AO2 T00170006
KCTJ 121115Z AUTO 00000KT 10SM CLR 01/00 A2991 RMK AO2 T00050000
KCTJ 121055Z AUTO 00000KT 10SM CLR 00/00 A2989 RMK AO2 T00021002
KCTJ 121035Z AUTO 00000KT 10SM CLR 01/00 A2990 RMK AO2 T00100002
KCTJ 121015Z AUTO 00000KT 10SM CLR 01/01 A2990 RMK AO2 T00120005
KCTJ 120955Z AUTO 00000KT 10SM CLR 02/01 A2990 RMK AO2 T00170007
KCTJ 120935Z AUTO 00000KT 10SM CLR 03/01 A2990 RMK AO2 T00290013
KCTJ 120915Z AUTO 29003KT 10SM CLR 03/01 A2991 RMK AO2 T00300013
KCTJ 120855Z AUTO 00000KT 10SM CLR 02/01 A2992 RMK AO2 T00190008
KCTJ 120835Z AUTO 00000KT 10SM CLR 03/01 A2992 RMK AO2 T00270012
KCTJ 120815Z AUTO 00000KT 10SM CLR 04/02 A2992 RMK AO2 T00350015
KCTJ 120755Z AUTO 00000KT 10SM CLR 04/02 A2993 RMK AO2 T00390015
KCTJ 120735Z AUTO 30003KT 10SM CLR 05/02 A2993 RMK AO2 T00470017
KCTJ 120715Z AUTO 00000KT 10SM CLR 05/02 A2993 RMK AO2 T00460017
KCTJ 120655Z AUTO 00000KT 10SM CLR 05/02 A2993 RMK AO2 T00470016
KCTJ 120635Z AUTO 00000KT 10SM CLR 05/02 A2994 RMK AO2 T00500017
KCTJ 120615Z AUTO 00000KT 10SM CLR 05/02 A2995 RMK AO2 T00470016
KCTJ 120555Z AUTO 00000KT 10SM CLR 05/02 A2996 RMK AO2 T00470016 10076 20028 401241044
KCTJ 120535Z AUTO 00000KT 10SM CLR 05/02 A2997 RMK AO2 T00460015
KCTJ 120515Z AUTO 22003KT 10SM CLR 03/01 A2998 RMK AO2 T00340012
KCTJ 120455Z AUTO 00000KT 10SM CLR 03/01 A2999 RMK AO2 T00330013
KCTJ 120435Z AUTO 00000KT 10SM CLR 04/01 A2999 RMK AO2 T00390013
KCTJ 120415Z AUTO 00000KT 10SM CLR 06/02 A3000 RMK AO2 T00560017
KCTJ 120355Z AUTO 00000KT 10SM CLR 06/02 A3001 RMK AO2 T00580016
KCTJ 120335Z AUTO 00000KT 10SM CLR 06/02 A3001 RMK AO2 T00560015
KCTJ 120315Z AUTO 00000KT 10SM CLR 06/01 A3001 RMK AO2 T00550014
KCTJ 120255Z AUTO 00000KT 10SM CLR 06/01 A3002 RMK AO2 T00550012
KCTJ 120235Z AUTO 00000KT 10SM CLR 06/01 A3003 RMK AO2 T00620013
KCTJ 120215Z AUTO 00000KT 10SM CLR 06/01 A3003 RMK AO2 T00630011
KCTJ 120155Z AUTO 00000KT 10SM CLR 06/01 A3004 RMK AO2 T00600009
KCTJ 120135Z AUTO 00000KT 10SM CLR 06/01 A3003 RMK AO2 T00600008
KCTJ 120115Z AUTO 00000KT 10SM CLR 07/01 A3004 RMK AO2 T00670008
KCTJ 120055Z AUTO 00000KT 10SM CLR 07/01 A3005 RMK AO2 T00720007
KCTJ 120035Z AUTO 00000KT 10SM CLR 07/01 A3005 RMK AO2 T00670007
KCTJ 120015Z AUTO 00000KT 10SM CLR 07/01 A3006 RMK AO2 T00720007
KCTJ 112355Z AUTO 00000KT 10SM CLR 06/01 A3006 RMK AO2 T00570007 10124 20050
KCTJ 112335Z AUTO 00000KT 10SM CLR 05/01 A3005 RMK AO2 T00510008
KCTJ 112315Z AUTO 00000KT 10SM CLR 07/01 A3006 RMK AO2 T00710008
KCTJ 112255Z AUTO 00000KT 10SM CLR 08/01 A3006 RMK AO2 T00810006
KCTJ 112235Z AUTO 00000KT 10SM CLR 10/01 A3006 RMK AO2 T00950005
KCTJ 112215Z AUTO 21003KT 10SM CLR 10/01 A3005 RMK AO2 T01030005
KCTJ 112155Z AUTO 00000KT 10SM CLR 12/01 A3007 RMK AO2 T01160008
KCTJ 112135Z AUTO 22003KT 10SM CLR 12/01 A3007 RMK AO2 T01190006
KCTJ 112115Z AUTO 20003KT 10SM CLR 12/00 A3008 RMK AO2 T01230004
KCTJ 112055Z AUTO 22003KT 10SM CLR 12/00 A3008 RMK AO2 T01220003
KCTJ 112035Z AUTO 22005KT 10SM CLR 12/00 A3009 RMK AO2 T01210001
KCTJ 112015Z AUTO 23004KT 10SM CLR 12/00 A3009 RMK AO2 T01210000
KCTJ 111955Z AUTO 23006KT 10SM CLR 12/00 A3009 RMK AO2 T01181002
KCTJ 111935Z AUTO 25003KT 10SM CLR 12/00 A3009 RMK AO2 T01181003
KCTJ 111915Z AUTO 23005KT 10SM CLR 12/00 A3010 RMK AO2 T01161004
KCTJ 111855Z AUTO 27004KT 10SM CLR 12/M01 A3011 RMK AO2 T01161006
KCTJ 111835Z AUTO 26003KT 10SM CLR 12/00 A3012 RMK AO2 T01151005
KCTJ 111815Z AUTO 28003KT 10SM CLR 11/M01 A3013 RMK AO2 T01101007
KCTJ 111755Z AUTO 00000KT 10SM CLR 11/00 A3013 RMK AO2 T01061003 10106 21044
KCTJ 111735Z AUTO 22003KT 10SM CLR 10/00 A3014 RMK AO2 T00991004
KCTJ 111715Z AUTO 00000KT 10SM CLR 10/M01 A3015 RMK AO2 T00971007
KCTJ 111655Z AUTO 00000KT 10SM CLR 09/M01 A3017 RMK AO2 T00871011
KCTJ 111635Z AUTO 00000KT 10SM CLR 08/M01 A3019 RMK AO2 T00791012
KCTJ 111615Z AUTO 00000KT 10SM CLR 07/M01 A3020 RMK AO2 T00701013
KCTJ 111555Z AUTO 00000KT 10SM CLR 07/M01 A3021 RMK AO2 T00651014
KCTJ 111535Z AUTO 26004KT 10SM CLR 07/M02 A3022 RMK AO2 T00651016
KCTJ 111515Z AUTO 00000KT 10SM CLR 05/M01 A3022 RMK AO2 T00541007
KCTJ 111455Z AUTO 00000KT 10SM CLR 03/M01 A3022 RMK AO2 T00321010
KCTJ 111435Z AUTO 00000KT 10SM CLR 01/M02 A3022 RMK AO2 T00121017
KCTJ 111415Z AUTO 00000KT 10SM CLR M01/M03 A3022 RMK AO2 T10111026
KCTJ 111355Z AUTO 00000KT 10SM CLR M01/M03 A3022 RMK AO2 T10131026
KCTJ 111335Z AUTO 00000KT 10SM CLR M02/M03 A3022 RMK AO2 T10241032
KCTJ 111315Z AUTO 00000KT 10SM CLR M03/M04 A3023 RMK AO2 T10351043
KCTJ 111255Z AUTO 00000KT 10SM CLR M03/M04 A3023 RMK AO2 T10331040
KCTJ 111235Z AUTO 00000KT 10SM CLR M04/M04 A3023 RMK AO2 T10371044
KCTJ 111215Z AUTO 00000KT 10SM CLR M04/M05 A3022 RMK AO2 T10401048
KCTJ 111155Z AUTO 00000KT 10SM CLR M03/M04 A3022 RMK AO2 T10331045 11016 21044
KCTJ 111135Z AUTO 00000KT 10SM CLR M03/M05 A3021 RMK AO2 T10331047
KCTJ 111115Z AUTO 28003KT 10SM CLR M02/M03 A3021 RMK AO2 T10241033
KCTJ 111055Z AUTO 00000KT 10SM CLR M03/M04 A3022 RMK AO2 T10281037
KCTJ 111035Z AUTO 00000KT 10SM CLR M04/M05 A3022 RMK AO2 T10411048
KCTJ 111015Z AUTO 00000KT 10SM CLR M04/M05 A3022 RMK AO2 T10411048
KCTJ 110955Z AUTO 00000KT 10SM CLR M04/M04 A3022 RMK AO2 T10381044
KCTJ 110935Z AUTO 00000KT 10SM CLR M03/M04 A3022 RMK AO2 T10351040
KCTJ 110915Z AUTO 00000KT 10SM CLR M04/M04 A3023 RMK AO2 T10401044
KCTJ 110855Z AUTO 00000KT 10SM CLR M04/M04 A3023 RMK AO2 T10391044
KCTJ 110835Z AUTO 00000KT 5SM BR CLR M04/M04 A3024 RMK AO2 T10381041
KCTJ 110815Z AUTO 00000KT 10SM CLR M04/M04 A3024 RMK AO2 T10371041
KCTJ 110755Z AUTO 00000KT 10SM CLR M04/M04 A3024 RMK AO2 T10401043
KCTJ 110735Z AUTO 00000KT 10SM CLR M04/M04 A3024 RMK AO2 T10361040
KCTJ 110715Z AUTO 00000KT 5SM BR CLR M04/M04 A3025 RMK AO2 T10391044
KCTJ 110655Z AUTO 00000KT 10SM CLR M03/M03 A3025 RMK AO2 T10281035
KCTJ 110635Z AUTO 00000KT 10SM CLR M03/M03 A3025 RMK AO2 T10281035
KCTJ 110615Z AUTO 00000KT 10SM CLR M03/M03 A3026 RMK AO2 T10301035
KCTJ 110555Z AUTO 00000KT 10SM CLR M03/M04 A3026 RMK AO2 T10311037 10007 21032 400481080
KCTJ 110535Z AUTO 00000KT 10SM CLR M02/M03 A3026 RMK AO2 T10211035
KCTJ 110515Z AUTO 00000KT 10SM CLR M02/M03 A3027 RMK AO2 T10201031
KCTJ 110455Z AUTO 00000KT 10SM CLR M02/M03 A3028 RMK AO2 T10191033
KCTJ 110435Z AUTO 00000KT 10SM CLR M01/M03 A3028 RMK AO2 T10121031
KCTJ 110415Z AUTO 00000KT 10SM CLR M01/M03 A3028 RMK AO2 T10071031
KCTJ 110355Z AUTO 00000KT 10SM CLR 00/M03 A3028 RMK AO2 T10011033
KCTJ 110335Z AUTO 00000KT 10SM CLR 00/M03 A3028 RMK AO2 T00021035
KCTJ 110315Z AUTO 00000KT 10SM CLR 00/M04 A3027 RMK AO2 T00031036
KCTJ 110255Z AUTO 00000KT 10SM CLR 01/M04 A3026 RMK AO2 T00051036
KCTJ 110235Z AUTO 00000KT 10SM CLR 00/M04 A3026 RMK AO2 T00041036
KCTJ 110215Z AUTO 00000KT 10SM CLR 01/M04 A3026 RMK AO2 T00051037